Time;durP1;ratioP1;P1;durP2;ratioP2;P2;SDS_P1;SDS_P2;PMS_P1;PMS_P2;Temp;Humidity;BMP_temperature;BMP_pressure;BME280_temperature;BME280_humidity;BME280_pressure;Samples;Min_cycle;Max_cycle;Signal;HPM_P1;HPM_P2
2021/03/29 00:00:10;;;;;;;7.90;4.18;;;;;;;4.70;100.00;97316.97;1035585;28;20025;-53
2021/03/29 00:00:40;;;;;;;8.13;4.60;;;;;;;4.73;100.00;97316.91;1035762;28;20037;-51
2021/03/29 00:01:11;;;;;;;7.57;4.13;;;;;;;4.73;100.00;97313.44;1035683;28;20380;-52
2021/03/29 00:01:42;;;;;;;6.97;3.90;;;;;;;4.73;100.00;97313.44;1031767;28;20509;-50
2021/03/29 00:02:12;;;;;;;8.75;4.10;;;;;;;4.68;100.00;97313.56;1039692;28;20029;-50
2021/03/29 00:02:43;;;;;;;9.20;4.03;;;;;;;4.67;100.00;97311.84;1043779;28;20379;-52
2021/03/29 00:03:14;;;;;;;9.63;5.30;;;;;;;4.68;100.00;97316.16;1035553;28;20100;-49
2021/03/29 00:03:45;;;;;;;10.13;4.53;;;;;;;4.70;100.00;97311.78;1031474;28;20057;-48
2021/03/29 00:04:15;;;;;;;8.75;4.05;;;;;;;4.73;100.00;97316.91;1031685;28;20038;-50
2021/03/29 00:04:46;;;;;;;7.32;4.03;;;;;;;4.74;100.00;97309.97;1031855;28;20010;-49
2021/03/29 00:05:18;;;;;;;6.85;3.78;;;;;;;4.73;100.00;97309.13;1031561;28;20022;-50
2021/03/29 00:05:49;;;;;;;8.05;3.97;;;;;;;4.74;100.00;97307.34;1031693;28;20073;-49
2021/03/29 00:06:19;;;;;;;9.15;4.43;;;;;;;4.75;100.00;97312.53;1039720;28;20641;-50
2021/03/29 00:06:50;;;;;;;5.97;3.72;;;;;;;4.76;100.00;97311.59;1035809;28;20034;-50
2021/03/29 00:07:21;;;;;;;7.00;3.67;;;;;;;4.77;100.00;97313.34;1027516;28;20058;-49
2021/03/29 00:07:55;;;;;;;7.95;4.40;;;;;;;4.76;100.00;97315.97;1028022;28;20421;-52
2021/03/29 00:08:28;;;;;;;7.10;3.83;;;;;;;4.77;100.00;97309.88;1040550;28;20034;-49
2021/03/29 00:08:58;;;;;;;7.82;3.97;;;;;;;4.81;100.00;97307.16;1040509;28;20646;-50
2021/03/29 00:09:30;;;;;;;7.30;4.20;;;;;;;4.81;100.00;97309.75;1036493;28;20245;-51
2021/03/29 00:10:04;;;;;;;8.02;4.25;;;;;;;4.81;100.00;97307.16;1036429;28;20010;-49
2021/03/29 00:10:36;;;;;;;8.27;4.40;;;;;;;4.78;100.00;97308.97;1036585;28;20327;-49
2021/03/29 00:11:07;;;;;;;8.70;4.20;;;;;;;4.77;100.00;97312.50;1036380;28;20739;-51
2021/03/29 00:11:38;;;;;;;9.32;4.18;;;;;;;4.78;100.00;97309.81;1036413;28;20280;-52
2021/03/29 00:12:09;;;;;;;7.80;4.00;;;;;;;4.77;100.00;97302.94;1040599;28;20024;-53
2021/03/29 00:12:43;;;;;;;7.75;3.75;;;;;;;4.78;100.00;97304.63;1044764;28;20609;-49
2021/03/29 00:13:14;;;;;;;10.20;4.20;;;;;;;4.80;100.00;97309.78;1040397;28;20017;-51
2021/03/29 00:13:45;;;;;;;7.00;3.75;;;;;;;4.81;100.00;97304.56;1036255;28;20245;-50
2021/03/29 00:14:16;;;;;;;8.95;4.40;;;;;;;4.80;100.00;97313.22;1032374;28;20464;-51
2021/03/29 00:14:46;;;;;;;8.35;3.85;;;;;;;4.79;100.00;97311.53;1028433;28;20015;-50
2021/03/29 00:15:19;;;;;;;8.15;4.18;;;;;;;4.79;100.00;97310.69;1044688;28;20389;-49
2021/03/29 00:15:51;;;;;;;6.63;3.90;;;;;;;4.79;100.00;97310.69;1032394;28;20012;-50
2021/03/29 00:16:22;;;;;;;8.05;4.00;;;;;;;4.74;100.00;97303.00;1036554;28;20241;-51
2021/03/29 00:16:53;;;;;;;10.18;5.07;;;;;;;4.75;100.00;97307.31;1036485;28;20742;-50
2021/03/29 00:17:23;;;;;;;7.55;4.45;;;;;;;4.76;100.00;97309.00;1036442;28;20014;-49
2021/03/29 00:17:54;;;;;;;6.18;4.00;;;;;;;4.72;100.00;97301.34;1028314;28;20020;-50
2021/03/29 00:18:25;;;;;;;6.50;4.22;;;;;;;4.74;100.00;97308.19;1040490;28;20075;-50
2021/03/29 00:18:56;;;;;;;8.30;4.10;;;;;;;4.76;100.00;97305.56;1036418;28;20253;-51
2021/03/29 00:19:28;;;;;;;9.32;4.20;;;;;;;4.75;100.00;97309.94;1036391;28;20024;-51
2021/03/29 00:19:59;;;;;;;7.97;4.32;;;;;;;4.75;100.00;97312.53;1036556;28;20040;-50
2021/03/29 00:20:30;;;;;;;7.25;3.75;;;;;;;4.79;100.00;97308.94;1040567;28;20748;-53
2021/03/29 00:21:05;;;;;;;7.72;3.95;;;;;;;4.83;100.00;97299.34;1036439;28;20021;-50
2021/03/29 00:21:36;;;;;;;8.35;4.75;;;;;;;4.83;100.00;97310.56;1036279;28;20345;-49
2021/03/29 00:22:06;;;;;;;6.07;4.03;;;;;;;4.79;100.00;97311.53;1040542;28;20262;-50
2021/03/29 00:22:38;;;;;;;7.68;3.80;;;;;;;4.77;100.00;97312.50;1040460;28;20013;-50
2021/03/29 00:23:09;;;;;;;8.20;3.95;;;;;;;4.75;100.00;97309.94;1032399;28;20109;-50
2021/03/29 00:23:39;;;;;;;6.70;4.13;;;;;;;4.67;100.00;97311.84;1044283;28;20768;-50
2021/03/29 00:24:10;;;;;;;8.32;3.92;;;;;;;4.71;100.00;97316.09;1036451;28;20377;-50
2021/03/29 00:24:41;;;;;;;8.80;4.07;;;;;;;4.78;100.00;97314.19;1040502;28;20068;-48
2021/03/29 00:25:14;;;;;;;7.70;3.92;;;;;;;4.79;100.00;97310.69;1040452;28;20486;-49
2021/03/29 00:25:45;;;;;;;10.02;4.13;;;;;;;4.76;100.00;97311.59;1040515;28;20164;-48
2021/03/29 00:26:15;;;;;;;7.28;3.85;;;;;;;4.74;100.00;97309.97;1028311;28;20624;-49
2021/03/29 00:26:46;;;;;;;8.82;4.00;;;;;;;4.73;100.00;97309.13;1040470;28;20048;-51
2021/03/29 00:27:17;;;;;;;8.35;4.65;;;;;;;4.75;100.00;97312.53;1040485;28;20025;-50
2021/03/29 00:27:48;;;;;;;10.05;4.85;;;;;;;4.72;100.00;97309.16;1032304;28;20129;-52
2021/03/29 00:28:19;;;;;;;7.60;4.15;;;;;;;4.70;100.00;97309.19;1036481;28;20022;-50
2021/03/29 00:28:50;;;;;;;5.65;3.83;;;;;;;4.60;100.00;97290.38;1028320;28;20329;-52
2021/03/29 00:29:21;;;;;;;6.88;4.03;;;;;;;4.72;100.00;97309.16;1032492;28;20257;-49
2021/03/29 00:29:52;;;;;;;6.72;4.18;;;;;;;4.70;100.00;97303.16;1036470;28;20030;-49
2021/03/29 00:30:25;;;;;;;9.50;3.90;;;;;;;4.69;100.00;97304.88;1036260;28;20116;-50
2021/03/29 00:30:56;;;;;;;6.25;3.60;;;;;;;4.70;100.00;97301.38;1036349;28;20112;-51
2021/03/29 00:31:27;;;;;;;8.43;3.85;;;;;;;4.70;100.00;97306.59;1040403;28;20622;-50
2021/03/29 00:31:58;;;;;;;9.90;4.40;;;;;;;4.70;100.00;97310.94;1036303;28;20053;-49
2021/03/29 00:32:30;;;;;;;7.05;3.78;;;;;;;4.69;100.00;97312.66;1036403;28;20056;-51
2021/03/29 00:33:01;;;;;;;7.63;3.63;;;;;;;4.72;100.00;97306.56;1048734;28;20450;-51
2021/03/29 00:33:31;;;;;;;8.88;3.67;;;;;;;4.73;100.00;97311.72;1040272;28;20263;-50
2021/03/29 00:34:02;;;;;;;9.98;3.88;;;;;;;4.71;100.00;97304.81;1036221;28;20456;-49
2021/03/29 00:34:34;;;;;;;9.30;3.90;;;;;;;4.71;100.00;97307.44;1032395;28;20097;-49
2021/03/29 00:35:05;;;;;;;7.25;3.63;;;;;;;4.68;100.00;97306.63;1040412;28;20399;-51
2021/03/29 00:35:38;;;;;;;8.27;3.85;;;;;;;4.66;100.00;97312.75;1036476;28;20264;-50
2021/03/29 00:36:10;;;;;;;8.27;3.50;;;;;;;4.64;100.00;97307.59;1028160;28;20262;-53
2021/03/29 00:36:41;;;;;;;6.88;3.80;;;;;;;4.64;100.00;97310.19;1032289;28;20273;-53
2021/03/29 00:37:12;;;;;;;6.57;3.72;;;;;;;4.64;100.00;97311.94;1036461;28;20265;-48
2021/03/29 00:37:46;;;;;;;10.13;4.22;;;;;;;4.62;100.00;97303.34;1036404;28;20713;-53
2021/03/29 00:38:17;;;;;;;8.60;4.35;;;;;;;4.61;100.00;97310.25;1040278;28;20029;-49
2021/03/29 00:38:49;;;;;;;7.15;3.90;;;;;;;4.59;100.00;97301.66;1040497;28;20287;-50
2021/03/29 00:39:20;;;;;;;8.70;4.05;;;;;;;4.60;100.00;97305.97;1048682;28;20246;-49
2021/03/29 00:39:51;;;;;;;6.35;3.97;;;;;;;4.58;100.00;97307.75;1044615;28;20698;-49
2021/03/29 00:40:22;;;;;;;9.40;4.28;;;;;;;4.52;100.00;97301.84;1036316;28;20265;-49
2021/03/29 00:40:54;;;;;;;7.00;3.55;;;;;;;4.57;100.00;97305.19;1036331;28;20113;-51
2021/03/29 00:41:25;;;;;;;6.85;3.60;;;;;;;4.61;100.00;97309.41;1036360;28;20033;-51
2021/03/29 00:41:56;;;;;;;8.82;4.53;;;;;;;4.58;100.00;97315.53;1032259;28;20258;-49
2021/03/29 00:42:27;;;;;;;8.05;3.60;;;;;;;4.55;100.00;97310.41;1040228;28;20066;-50
2021/03/29 00:43:01;;;;;;;7.80;3.70;;;;;;;4.52;100.00;97307.88;1040360;28;20017;-50
2021/03/29 00:43:33;;;;;;;7.30;3.83;;;;;;;4.54;100.00;97310.44;1032085;28;20035;-50
2021/03/29 00:44:04;;;;;;;9.90;4.07;;;;;;;4.54;100.00;97308.69;1032134;28;20270;-50
2021/03/29 00:44:35;;;;;;;8.02;3.97;;;;;;;4.59;100.00;97308.59;1036263;28;20245;-50
2021/03/29 00:45:07;;;;;;;7.18;3.90;;;;;;;4.61;100.00;97306.81;1040520;28;20300;-49
2021/03/29 00:45:39;;;;;;;9.60;3.80;;;;;;;4.61;100.00;97314.59;1040461;28;20018;-48
2021/03/29 00:46:10;;;;;;;8.05;3.85;;;;;;;4.62;100.00;97313.72;1036362;28;20264;-50
2021/03/29 00:46:41;;;;;;;7.05;4.00;;;;;;;4.60;100.00;97299.94;1036319;28;20276;-49
2021/03/29 00:47:12;;;;;;;6.22;3.60;;;;;;;4.59;100.00;97309.44;1036441;28;20669;-50
2021/03/29 00:47:43;;;;;;;8.65;4.18;;;;;;;4.57;100.00;97308.63;1028281;28;20397;-53
2021/03/29 00:48:16;;;;;;;7.13;3.60;;;;;;;4.58;100.00;97307.75;1036469;28;20244;-50
2021/03/29 00:48:49;;;;;;;11.38;3.63;;;;;;;4.60;100.00;97307.72;1044392;28;20054;-52
2021/03/29 00:49:20;;;;;;;11.55;4.10;;;;;;;4.62;100.00;97311.13;1040405;28;20421;-50
2021/03/29 00:49:51;;;;;;;8.93;3.53;;;;;;;4.58;100.00;97309.47;1032343;28;20261;-50
2021/03/29 00:50:41;;;;;;;6.90;3.63;;;;;;;4.58;100.00;97312.06;1036214;28;20105;-51
2021/03/29 00:51:22;;;;;;;6.40;3.67;;;;;;;4.55;100.00;97310.41;1040463;28;20049;-49
2021/03/29 00:51:53;;;;;;;7.53;3.88;;;;;;;4.54;100.00;97308.69;1028411;28;20023;-50
2021/03/29 00:52:24;;;;;;;7.65;3.80;;;;;;;4.51;100.00;97316.56;1036282;28;20684;-50
2021/03/29 00:52:55;;;;;;;7.55;3.70;;;;;;;4.50;100.00;97308.81;1032228;28;20010;-50
2021/03/29 00:53:26;;;;;;;6.47;4.32;;;;;;;4.52;100.00;97307.03;1036226;28;20269;-51
2021/03/29 00:53:58;;;;;;;7.70;3.50;;;;;;;4.54;100.00;97310.44;1032120;28;20014;-49
2021/03/29 00:54:29;;;;;;;8.82;4.75;;;;;;;4.53;100.00;97316.53;1028087;28;20033;-48
2021/03/29 00:54:59;;;;;;;8.80;3.90;;;;;;;4.50;100.00;97304.47;1036235;28;20328;-52
2021/03/29 00:55:30;;;;;;;6.38;3.97;;;;;;;4.52;100.00;97312.22;1040291;28;20013;-50
2021/03/29 00:56:01;;;;;;;9.88;4.30;;;;;;;4.54;100.00;97310.44;1032247;28;20061;-49
2021/03/29 00:56:33;;;;;;;13.57;4.22;;;;;;;4.56;100.00;97308.66;1036213;28;20424;-50
2021/03/29 00:57:04;;;;;;;6.82;4.10;;;;;;;4.53;100.00;97311.34;1032198;28;20026;-51
2021/03/29 00:57:36;;;;;;;8.45;4.20;;;;;;;4.52;100.00;97309.63;1040499;28;20243;-50
2021/03/29 00:58:06;;;;;;;8.38;4.00;;;;;;;4.50;100.00;97314.84;1036274;28;20257;-50
2021/03/29 00:58:37;;;;;;;6.20;3.90;;;;;;;4.49;100.00;97313.16;1040395;28;20352;-49
2021/03/29 00:59:08;;;;;;;9.75;4.60;;;;;;;4.47;100.00;97310.59;1036208;28;20460;-50
2021/03/29 00:59:39;;;;;;;6.60;4.00;;;;;;;4.47;100.00;97312.34;1040491;28;20280;-49
2021/03/29 01:00:15;;;;;;;7.43;4.03;;;;;;;4.45;100.00;97312.38;1032100;28;20030;-50
2021/03/29 01:00:49;;;;;;;6.38;3.53;;;;;;;4.48;100.00;97311.44;1032282;28;20103;-48
2021/03/29 01:01:23;;;;;;;9.10;4.35;;;;;;;4.47;100.00;97305.41;1032184;28;20754;-51
2021/03/29 01:01:54;;;;;;;8.02;3.88;;;;;;;4.47;100.00;97310.59;1036344;28;20773;-50
2021/03/29 01:02:24;;;;;;;6.75;3.70;;;;;;;4.47;100.00;97312.34;1032198;28;20283;-50
2021/03/29 01:02:55;;;;;;;12.10;4.20;;;;;;;4.45;100.00;97314.13;1040351;28;20766;-50
2021/03/29 01:03:31;;;;;;;8.35;4.20;;;;;;;4.42;100.00;97309.84;1036085;28;20029;-51
2021/03/29 01:04:02;;;;;;;8.50;4.40;;;;;;;4.41;100.00;97313.34;1036205;28;20046;-52
2021/03/29 01:04:33;;;;;;;8.52;4.43;;;;;;;4.35;100.00;97303.09;1032185;28;20336;-48
2021/03/29 01:05:10;;;;;;;8.60;4.30;;;;;;;4.34;100.00;97304.00;1036216;28;20323;-52
2021/03/29 01:05:41;;;;;;;6.88;4.00;;;;;;;4.34;100.00;97311.78;1028137;28;20038;-50
2021/03/29 01:06:15;;;;;;;8.57;4.40;;;;;;;4.32;100.00;97310.09;1032215;28;20774;-51
2021/03/29 01:06:48;;;;;;;8.63;3.78;;;;;;;4.31;100.00;97295.44;1040266;28;20256;-51
2021/03/29 01:07:19;;;;;;;9.00;4.07;;;;;;;4.31;100.00;97308.41;1036195;28;20253;-49
2021/03/29 01:07:52;;;;;;;7.20;3.83;;;;;;;4.27;100.00;97305.88;1032137;28;20249;-52
2021/03/29 01:08:23;;;;;;;8.82;3.95;;;;;;;4.29;100.00;97309.28;1036292;28;20695;-49
2021/03/29 01:08:56;;;;;;;8.77;3.97;;;;;;;4.32;100.00;97300.59;1036285;28;20253;-49
2021/03/29 01:09:27;;;;;;;6.82;4.07;;;;;;;4.31;100.00;97301.47;1040251;28;20112;-48
2021/03/29 01:09:58;;;;;;;8.40;4.13;;;;;;;4.29;100.00;97304.09;1028138;28;20616;-53
2021/03/29 01:10:29;;;;;;;7.82;4.35;;;;;;;4.31;100.00;97304.06;1036127;28;20264;-50
2021/03/29 01:11:00;;;;;;;8.18;4.47;;;;;;;4.29;100.00;97303.25;1036152;28;20034;-49
2021/03/29 01:11:33;;;;;;;12.70;4.45;;;;;;;4.27;100.00;97308.47;1036065;28;20093;-48
2021/03/29 01:12:06;;;;;;;11.32;4.43;;;;;;;4.27;100.00;97308.47;1032104;28;20284;-50
2021/03/29 01:12:37;;;;;;;6.25;4.15;;;;;;;4.30;100.00;97304.97;1040292;28;20327;-49
2021/03/29 01:13:10;;;;;;;10.23;4.30;;;;;;;4.31;100.00;97308.41;1036266;28;20257;-49
2021/03/29 01:13:44;;;;;;;8.02;4.15;;;;;;;4.34;100.00;97305.75;1035798;28;20506;-51
2021/03/29 01:14:19;;;;;;;6.22;3.60;;;;;;;4.34;100.00;97305.75;1028541;28;20267;-51
2021/03/29 01:14:49;;;;;;;10.98;4.60;;;;;;;4.32;100.00;97305.78;1033653;28;20755;-49
2021/03/29 01:15:20;;;;;;;8.40;4.10;;;;;;;4.32;100.00;97307.50;1036292;28;20260;-52
2021/03/29 01:15:51;;;;;;;8.15;4.43;;;;;;;4.33;100.00;97304.03;1032078;28;20050;-49
2021/03/29 01:16:23;;;;;;;7.70;4.00;;;;;;;4.35;100.00;97310.88;1040279;28;20021;-53
2021/03/29 01:17:00;;;;;;;9.95;4.70;;;;;;;4.40;100.00;97311.63;1032117;28;20285;-50
2021/03/29 01:17:32;;;;;;;8.63;4.38;;;;;;;4.41;100.00;97313.34;1036339;28;20288;-53
2021/03/29 01:18:03;;;;;;;9.35;5.13;;;;;;;4.41;100.00;97308.16;1032106;28;20763;-51
2021/03/29 01:18:34;;;;;;;8.85;4.82;;;;;;;4.42;100.00;97304.66;1040232;28;20365;-50
2021/03/29 01:19:09;;;;;;;7.28;4.00;;;;;;;4.43;100.00;97314.16;1036042;28;20261;-49
2021/03/29 01:19:59;;;;;;;8.65;4.43;;;;;;;4.46;100.00;97305.44;1031422;28;20026;-48
2021/03/29 01:20:50;;;;;;;8.98;4.80;;;;;;;4.49;100.00;97302.78;1028088;28;20254;-49
2021/03/29 01:21:24;;;;;;;;;;;;;;;4.48;100.00;97307.09;1038120;28;20018;-50
2021/03/29 01:22:06;;;;;;;8.45;4.20;;;;;;;4.51;100.00;97310.53;1032045;28;19910;-50
2021/03/29 01:22:45;;;;;;;8.85;4.65;;;;;;;4.47;100.00;97315.78;1032197;28;20369;-53
2021/03/29 01:23:17;;;;;;;8.88;4.88;;;;;;;4.48;100.00;97312.28;1032119;28;20273;-49
2021/03/29 01:23:47;;;;;;;7.82;4.25;;;;;;;4.46;100.00;97314.06;1031896;28;20026;-49
2021/03/29 01:24:30;;;;;;;9.45;5.13;;;;;;;4.46;100.00;97308.03;1035698;28;20280;-49
2021/03/29 01:25:21;;;;;;;10.43;4.65;;;;;;;4.47;100.00;97320.13;1036261;28;20048;-49
2021/03/29 01:25:55;;;;;;;8.77;4.82;;;;;;;4.42;100.00;97317.63;1032763;28;20256;-49
2021/03/29 01:26:39;;;;;;;8.27;4.50;;;;;;;4.43;100.00;97313.28;1032006;28;20097;-49
2021/03/29 01:27:11;;;;;;;8.00;4.30;;;;;;;4.35;100.00;97320.41;1036197;28;20257;-47
2021/03/29 01:27:52;;;;;;;8.82;4.50;;;;;;;4.37;100.00;97314.28;1036228;28;20739;-49
2021/03/29 01:28:23;;;;;;;8.32;4.13;;;;;;;4.39;100.00;97315.13;1036044;28;20273;-51
2021/03/29 01:28:54;;;;;;;9.80;4.35;;;;;;;4.41;100.00;97310.75;1036202;28;20249;-49
2021/03/29 01:29:30;;;;;;;9.18;4.78;;;;;;;4.38;100.00;97308.22;1036081;28;20021;-48
2021/03/29 01:30:01;;;;;;;8.68;4.18;;;;;;;4.40;100.00;97310.78;1040253;28;20471;-49
2021/03/29 01:30:33;;;;;;;9.23;4.53;;;;;;;4.38;100.00;97309.97;1044237;28;20340;-50
2021/03/29 01:31:04;;;;;;;6.47;4.15;;;;;;;4.38;100.00;97309.97;1040316;28;20022;-50
2021/03/29 01:31:37;;;;;;;8.70;4.10;;;;;;;4.36;100.00;97317.78;1028242;28;20386;-50
2021/03/29 01:32:07;;;;;;;7.60;4.38;;;;;;;4.37;100.00;97313.44;1036150;28;20257;-49
2021/03/29 01:32:39;;;;;;;9.45;4.40;;;;;;;4.33;100.00;97307.47;1032021;28;20281;-50
2021/03/29 01:33:09;;;;;;;6.82;4.10;;;;;;;4.32;100.00;97299.72;1032351;28;20399;-50
2021/03/29 01:33:40;;;;;;;8.85;4.55;;;;;;;4.35;100.00;97310.88;1031868;28;20242;-50
2021/03/29 01:34:13;;;;;;;8.00;4.25;;;;;;;4.33;100.00;97311.81;1040221;28;20117;-50
2021/03/29 01:34:44;;;;;;;11.23;4.72;;;;;;;4.36;100.00;97309.16;1040133;28;20013;-50
2021/03/29 01:35:18;;;;;;;12.48;4.72;;;;;;;4.38;100.00;97316.00;1036238;28;20821;-49
2021/03/29 01:35:55;;;;;;;8.65;4.13;;;;;;;4.34;100.00;97309.19;1036078;28;20010;-49
2021/03/29 01:36:25;;;;;;;9.70;4.10;;;;;;;4.31;100.00;97314.44;1036133;28;20691;-50
2021/03/29 01:36:57;;;;;;;11.10;4.45;;;;;;;4.34;100.00;97310.94;1032041;28;20242;-49
2021/03/29 01:37:28;;;;;;;8.80;4.68;;;;;;;4.36;100.00;97316.94;1044443;28;20009;-49
2021/03/29 01:38:00;;;;;;;8.48;4.38;;;;;;;4.32;100.00;97317.88;1036153;28;20253;-51
2021/03/29 01:38:31;;;;;;;9.13;4.35;;;;;;;4.28;100.00;97317.97;1027998;28;20708;-49
2021/03/29 01:39:02;;;;;;;7.07;4.22;;;;;;;4.31;100.00;97323.97;1036029;28;20021;-53
2021/03/29 01:39:33;;;;;;;6.50;4.20;;;;;;;4.29;100.00;97324.00;1036114;28;20101;-50
2021/03/29 01:40:05;;;;;;;7.63;4.75;;;;;;;4.32;100.00;97313.56;1040148;28;20257;-50
2021/03/29 01:40:37;;;;;;;8.52;4.63;;;;;;;4.33;100.00;97311.81;1044398;28;20274;-51
2021/03/29 01:41:08;;;;;;;10.90;4.55;;;;;;;4.30;100.00;97312.75;1036087;28;20241;-52
2021/03/29 01:41:41;;;;;;;10.05;4.72;;;;;;;4.31;100.00;97314.44;1032134;28;20253;-48
2021/03/29 01:42:12;;;;;;;6.93;4.30;;;;;;;4.27;100.00;97324.03;1031996;28;20309;-53
2021/03/29 01:42:43;;;;;;;6.95;4.50;;;;;;;4.22;100.00;97315.53;1032002;28;20246;-49
2021/03/29 01:43:14;;;;;;;8.10;4.50;;;;;;;4.23;100.00;97321.56;1027950;28;20806;-53
2021/03/29 01:43:45;;;;;;;7.57;4.30;;;;;;;4.22;100.00;97315.53;1039961;28;20415;-48
2021/03/29 01:44:17;;;;;;;8.93;4.35;;;;;;;4.23;100.00;97324.16;1036219;28;20022;-54
2021/03/29 01:44:48;;;;;;;9.60;4.72;;;;;;;4.19;100.00;97320.78;1032150;28;20258;-51
2021/03/29 01:45:19;;;;;;;8.43;4.20;;;;;;;4.17;100.00;97321.72;1040086;28;20260;-50
2021/03/29 01:45:50;;;;;;;7.53;4.43;;;;;;;4.09;100.00;97316.66;1036112;28;20092;-50
2021/03/29 01:46:21;;;;;;;9.88;4.82;;;;;;;4.16;100.00;97325.16;1031894;28;20264;-50
2021/03/29 01:46:52;;;;;;;8.55;4.05;;;;;;;4.07;100.00;97311.53;1032096;28;20022;-52
2021/03/29 01:47:23;;;;;;;7.55;4.50;;;;;;;4.13;100.00;97320.03;1040031;28;20033;-50
2021/03/29 01:47:54;;;;;;;9.23;4.72;;;;;;;4.03;100.00;97319.41;1032043;28;20300;-50
2021/03/29 01:48:25;;;;;;;9.13;4.63;;;;;;;4.04;100.00;97313.34;1032132;28;20101;-50
2021/03/29 01:48:56;;;;;;;8.25;5.07;;;;;;;4.05;100.00;97315.03;1040213;28;20027;-53
2021/03/29 01:49:27;;;;;;;9.82;5.38;;;;;;;4.04;100.00;97319.38;1027993;28;20452;-49
2021/03/29 01:49:58;;;;;;;7.53;4.70;;;;;;;4.07;100.00;97321.91;1036052;28;20256;-51
2021/03/29 01:50:30;;;;;;;8.57;4.50;;;;;;;4.04;100.00;97315.94;1031929;28;20324;-47
2021/03/29 01:51:01;;;;;;;7.50;4.43;;;;;;;4.00;100.00;97315.16;1032017;28;20751;-50
2021/03/29 01:51:32;;;;;;;10.73;5.47;;;;;;;3.99;100.00;97313.44;1040125;28;20252;-53
2021/03/29 01:52:04;;;;;;;8.65;4.78;;;;;;;3.93;100.00;97318.75;1032148;28;20022;-50
2021/03/29 01:52:35;;;;;;;9.32;4.32;;;;;;;3.97;100.00;97319.53;1040167;28;20290;-51
2021/03/29 01:53:07;;;;;;;9.02;4.82;;;;;;;3.94;100.00;97323.06;1036177;28;20277;-50
2021/03/29 01:53:38;;;;;;;9.65;4.72;;;;;;;3.91;100.00;97317.94;1027829;28;20041;-48
2021/03/29 01:54:09;;;;;;;9.70;5.07;;;;;;;3.96;100.00;97321.28;1036034;28;20264;-51
2021/03/29 01:54:40;;;;;;;8.45;4.65;;;;;;;3.97;100.00;97319.53;1032100;28;20250;-50
2021/03/29 01:55:11;;;;;;;9.13;4.28;;;;;;;3.94;100.00;97312.69;1036055;28;20638;-50
2021/03/29 01:55:41;;;;;;;7.30;4.72;;;;;;;3.95;100.00;97321.31;1044333;28;20020;-50
2021/03/29 01:56:12;;;;;;;8.30;4.68;;;;;;;3.90;100.00;97318.81;1028063;28;20258;-52
2021/03/29 01:56:43;;;;;;;9.27;5.30;;;;;;;3.88;100.00;97315.41;1036110;28;20459;-49
2021/03/29 01:57:14;;;;;;;11.98;4.88;;;;;;;3.88;100.00;97320.59;1044354;28;20023;-53
2021/03/29 01:57:45;;;;;;;6.78;4.28;;;;;;;3.88;100.00;97320.59;1031888;28;20137;-50
2021/03/29 01:58:17;;;;;;;8.77;4.45;;;;;;;3.90;100.00;97318.81;1040090;28;20781;-51
2021/03/29 01:58:47;;;;;;;7.40;4.32;;;;;;;3.91;100.00;97312.75;1040295;28;20828;-50
2021/03/29 01:59:18;;;;;;;7.85;4.75;;;;;;;3.89;100.00;97312.78;1036197;28;20311;-51
2021/03/29 01:59:49;;;;;;;9.77;4.55;;;;;;;3.88;100.00;97316.25;1035897;28;20108;-51
2021/03/29 02:00:32;;;;;;;10.43;4.97;;;;;;;3.90;100.00;97313.63;1036197;28;20336;-49
2021/03/29 02:01:05;;;;;;;8.23;4.47;;;;;;;3.85;100.00;97313.75;1032009;28;20261;-50
2021/03/29 02:01:36;;;;;;;8.23;4.82;;;;;;;3.83;100.00;97323.28;1040092;28;20765;-47
2021/03/29 02:02:07;;;;;;;6.97;4.45;;;;;;;3.79;100.00;97326.84;1031981;28;20289;-51
2021/03/29 02:02:38;;;;;;;8.73;4.70;;;;;;;3.79;100.00;97320.78;1044228;28;20012;-49
2021/03/29 02:03:10;;;;;;;6.60;3.72;;;;;;;3.80;100.00;97317.31;1024011;29;20015;-53
2021/03/29 02:03:41;;;;;;;7.68;4.38;;;;;;;3.80;100.00;97330.28;1031669;28;20026;-51
2021/03/29 02:04:11;;;;;;;9.05;4.68;;;;;;;3.76;100.00;97326.06;1032268;28;20667;-49
2021/03/29 02:04:42;;;;;;;9.02;4.72;;;;;;;3.72;100.00;97330.44;1032782;28;20076;-50
2021/03/29 02:05:14;;;;;;;8.88;4.22;;;;;;;3.74;100.00;97320.91;1037141;28;20102;-52
2021/03/29 02:05:45;;;;;;;8.98;4.63;;;;;;;3.77;100.00;97319.97;1036834;28;20026;-50
2021/03/29 02:06:16;;;;;;;8.95;4.78;;;;;;;3.82;100.00;97323.31;1036860;28;20276;-50
2021/03/29 02:06:47;;;;;;;8.55;4.95;;;;;;;3.86;100.00;97319.78;1040838;28;20111;-50
2021/03/29 02:07:18;;;;;;;9.15;5.25;;;;;;;3.84;100.00;97324.13;1045353;28;20418;-48
2021/03/29 02:07:49;;;;;;;7.53;4.40;;;;;;;3.82;100.00;97321.56;1028640;28;20464;-52
2021/03/29 02:08:20;;;;;;;9.38;4.75;;;;;;;3.81;100.00;97327.66;1037564;28;20285;-50
2021/03/29 02:08:51;;;;;;;10.18;4.70;;;;;;;3.78;100.00;97316.50;1040033;28;20786;-54
2021/03/29 02:09:22;;;;;;;6.05;3.90;;;;;;;3.79;100.00;97320.78;1040237;28;20014;-54
2021/03/29 02:09:52;;;;;;;8.57;4.45;;;;;;;3.80;100.00;97322.50;1044292;28;20018;-53
2021/03/29 02:10:24;;;;;;;8.10;4.80;;;;;;;3.79;100.00;97320.78;1040072;28;20033;-53
2021/03/29 02:10:55;;;;;;;10.93;4.88;;;;;;;3.78;100.00;97319.09;1036461;28;20010;-54
2021/03/29 02:11:26;;;;;;;8.65;4.88;;;;;;;3.74;100.00;97317.47;1036341;28;20281;-52
2021/03/29 02:11:57;;;;;;;8.35;4.90;;;;;;;3.73;100.00;97321.75;1041117;28;20245;-58
2021/03/29 02:12:28;;;;;;;7.68;4.63;;;;;;;3.76;100.00;97313.09;1049160;28;20247;-54
2021/03/29 02:13:08;;;;;;;8.05;4.50;;;;;;;3.78;100.00;97324.28;1045104;28;20005;-57
2021/03/29 02:13:42;;;;;;;10.18;5.07;;;;;;;3.75;100.00;97319.16;1032504;28;20051;-53
2021/03/29 02:14:12;;;;;;;9.32;4.55;;;;;;;3.77;100.00;97319.97;1032785;28;20011;-52
2021/03/29 02:14:43;;;;;;;8.98;4.50;;;;;;;3.75;100.00;97317.41;1033680;28;20237;-52
2021/03/29 02:15:18;;;;;;;10.07;4.57;;;;;;;3.73;100.00;97326.09;1028033;28;20428;-48
2021/03/29 02:15:53;;;;;;;9.35;4.32;;;;;;;3.77;100.00;97317.38;1032169;28;20396;-50
2021/03/29 02:16:24;;;;;;;9.35;4.82;;;;;;;3.78;100.00;97319.94;1027968;28;20774;-50
2021/03/29 02:16:56;;;;;;;9.77;4.55;;;;;;;3.80;100.00;97327.69;1036079;28;20257;-52
2021/03/29 02:17:28;;;;;;;9.80;4.88;;;;;;;3.80;100.00;97317.31;1044241;28;20019;-51
2021/03/29 02:18:00;;;;;;;10.98;5.20;;;;;;;3.78;100.00;97319.09;1032041;28;20292;-48
2021/03/29 02:18:36;;;;;;;7.22;4.40;;;;;;;3.75;100.00;97321.75;1031894;28;20696;-48
2021/03/29 02:19:07;;;;;;;9.98;4.90;;;;;;;3.77;100.00;97330.34;1036133;28;20269;-48
2021/03/29 02:19:38;;;;;;;8.07;4.57;;;;;;;3.75;100.00;97319.16;1036003;28;20751;-50
2021/03/29 02:20:13;;;;;;;8.43;4.85;;;;;;;3.74;100.00;97325.25;1027880;28;20376;-50
2021/03/29 02:20:44;;;;;;;10.52;4.32;;;;;;;3.72;100.00;97317.47;1023981;29;20625;-49
2021/03/29 02:21:18;;;;;;;7.78;4.90;;;;;;;3.72;100.00;97334.75;1032017;28;20250;-50
2021/03/29 02:21:49;;;;;;;11.30;4.90;;;;;;;3.65;100.00;97321.94;1040171;28;20014;-50
2021/03/29 02:22:19;;;;;;;8.52;4.68;;;;;;;3.67;100.00;97324.50;1035955;28;20261;-49
2021/03/29 02:22:52;;;;;;;9.43;5.03;;;;;;;3.66;100.00;97323.66;1023815;29;20079;-48
2021/03/29 02:23:23;;;;;;;10.10;4.65;;;;;;;3.67;100.00;97332.28;1031932;28;20020;-49
2021/03/29 02:23:56;;;;;;;10.23;4.93;;;;;;;3.70;100.00;97330.47;1039998;28;20288;-51
2021/03/29 02:24:27;;;;;;;12.13;4.53;;;;;;;3.72;100.00;97327.84;1044185;28;20032;-52
2021/03/29 02:24:58;;;;;;;7.82;5.15;;;;;;;3.69;100.00;97326.16;1039919;28;20252;-48
2021/03/29 02:25:29;;;;;;;11.05;4.60;;;;;;;3.68;100.00;97328.81;1036007;28;20396;-49
2021/03/29 02:26:01;;;;;;;10.27;4.88;;;;;;;3.70;100.00;97327.03;1035956;28;20030;-48
2021/03/29 02:26:35;;;;;;;9.07;4.35;;;;;;;3.69;100.00;97326.16;1024209;28;20644;-52
2021/03/29 02:27:06;;;;;;;9.05;4.90;;;;;;;3.72;100.00;97329.56;1025352;28;20271;-50
2021/03/29 02:27:37;;;;;;;9.60;4.80;;;;;;;3.71;100.00;97323.53;1028596;28;20349;-47
2021/03/29 02:28:08;;;;;;;10.45;4.43;;;;;;;3.72;100.00;97329.56;1037650;28;20268;-49
2021/03/29 02:28:39;;;;;;;9.73;4.60;;;;;;;3.72;100.00;97332.16;1040059;28;20275;-51
2021/03/29 02:29:10;;;;;;;11.43;4.72;;;;;;;3.70;100.00;97327.88;1031866;28;20508;-50
2021/03/29 02:29:41;;;;;;;10.25;4.47;;;;;;;3.71;100.00;97328.72;1031865;28;20026;-49
2021/03/29 02:30:13;;;;;;;8.73;4.68;;;;;;;3.75;100.00;97329.50;1035884;28;20116;-52
2021/03/29 02:30:44;;;;;;;12.05;6.40;;;;;;;3.73;100.00;97332.13;1035752;28;20390;-51